sensor_id;sensor_type;location;lat;lon;timestamp;P1;durP1;ratioP1;P2;durP2;ratioP2
48534;SDS011;34323;52.022;5.686;2022-10-23T00:00:36;13.15;;;6.25;;
48534;SDS011;34323;52.022;5.686;2022-10-23T00:03:03;11.68;;;5.57;;
48534;SDS011;34323;52.022;5.686;2022-10-23T00:05:29;8.65;;;5.30;;
48534;SDS011;34323;52.022;5.686;2022-10-23T00:07:55;12.07;;;5.85;;
48534;SDS011;34323;52.022;5.686;2022-10-23T00:10:22;13.73;;;5.15;;
48534;SDS011;34323;52.022;5.686;2022-10-23T00:12:49;11.40;;;5.47;;
48534;SDS011;34323;52.022;5.686;2022-10-23T00:15:17;9.50;;;5.57;;
48534;SDS011;34323;52.022;5.686;2022-10-23T00:17:44;15.90;;;5.10;;
48534;SDS011;34323;52.022;5.686;2022-10-23T00:20:10;9.68;;;4.82;;
48534;SDS011;34323;52.022;5.686;2022-10-23T00:22:36;16.88;;;5.40;;
48534;SDS011;34323;52.022;5.686;2022-10-23T00:25:03;10.80;;;5.07;;
48534;SDS011;34323;52.022;5.686;2022-10-23T00:27:30;14.93;;;5.35;;
48534;SDS011;34323;52.022;5.686;2022-10-23T00:29:56;16.05;;;5.22;;
48534;SDS011;34323;52.022;5.686;2022-10-23T00:32:21;8.50;;;4.53;;
48534;SDS011;34323;52.022;5.686;2022-10-23T00:34:47;8.52;;;5.07;;
48534;SDS011;34323;52.022;5.686;2022-10-23T00:37:12;10.98;;;4.60;;
48534;SDS011;34323;52.022;5.686;2022-10-23T00:39:38;11.68;;;4.90;;
48534;SDS011;34323;52.022;5.686;2022-10-23T00:42:03;9.82;;;5.25;;
48534;SDS011;34323;52.022;5.686;2022-10-23T00:46:55;11.43;;;4.70;;
48534;SDS011;34323;52.022;5.686;2022-10-23T00:49:21;11.00;;;5.28;;
48534;SDS011;34323;52.022;5.686;2022-10-23T00:51:48;13.27;;;5.90;;
48534;SDS011;34323;52.022;5.686;2022-10-23T00:54:22;15.90;;;5.57;;
48534;SDS011;34323;52.022;5.686;2022-10-23T00:56:55;10.25;;;5.22;;
48534;SDS011;34323;52.022;5.686;2022-10-23T00:59:23;10.82;;;4.80;;
48534;SDS011;34323;52.022;5.686;2022-10-23T01:01:49;12.63;;;5.30;;
48534;SDS011;34323;52.022;5.686;2022-10-23T01:04:15;10.10;;;4.57;;
48534;SDS011;34323;52.022;5.686;2022-10-23T01:06:50;9.00;;;4.72;;
48534;SDS011;34323;52.022;5.686;2022-10-23T01:15:19;11.90;;;5.53;;
48534;SDS011;34323;52.022;5.686;2022-10-23T01:17:54;22.55;;;5.45;;
48534;SDS011;34323;52.022;5.686;2022-10-23T01:20:45;15.43;;;5.13;;
48534;SDS011;34323;52.022;5.686;2022-10-23T01:28:58;10.52;;;4.68;;
48534;SDS011;34323;52.022;5.686;2022-10-23T01:31:34;18.23;;;4.90;;
48534;SDS011;34323;52.022;5.686;2022-10-23T01:34:09;7.75;;;4.70;;
48534;SDS011;34323;52.022;5.686;2022-10-23T01:36:40;13.15;;;5.57;;
48534;SDS011;34323;52.022;5.686;2022-10-23T01:39:10;8.50;;;4.90;;
48534;SDS011;34323;52.022;5.686;2022-10-23T01:41:43;13.73;;;5.03;;
48534;SDS011;34323;52.022;5.686;2022-10-23T01:46:47;12.63;;;5.18;;
48534;SDS011;34323;52.022;5.686;2022-10-23T01:49:15;7.40;;;4.55;;
48534;SDS011;34323;52.022;5.686;2022-10-23T01:51:45;11.98;;;4.38;;
48534;SDS011;34323;52.022;5.686;2022-10-23T01:54:16;11.33;;;5.17;;
48534;SDS011;34323;52.022;5.686;2022-10-23T01:56:47;9.90;;;4.95;;
48534;SDS011;34323;52.022;5.686;2022-10-23T01:59:16;12.93;;;5.20;;
48534;SDS011;34323;52.022;5.686;2022-10-23T02:01:48;9.35;;;5.25;;
48534;SDS011;34323;52.022;5.686;2022-10-23T02:04:17;11.70;;;5.93;;
48534;SDS011;34323;52.022;5.686;2022-10-23T02:06:48;13.10;;;5.30;;
48534;SDS011;34323;52.022;5.686;2022-10-23T02:09:14;11.10;;;5.72;;
48534;SDS011;34323;52.022;5.686;2022-10-23T02:11:43;14.27;;;5.47;;
48534;SDS011;34323;52.022;5.686;2022-10-23T02:17:15;11.20;;;4.93;;
48534;SDS011;34323;52.022;5.686;2022-10-23T02:22:34;11.45;;;4.85;;
48534;SDS011;34323;52.022;5.686;2022-10-23T02:25:12;7.20;;;4.57;;
48534;SDS011;34323;52.022;5.686;2022-10-23T02:27:42;7.78;;;4.45;;
48534;SDS011;34323;52.022;5.686;2022-10-23T02:30:12;9.13;;;5.07;;
48534;SDS011;34323;52.022;5.686;2022-10-23T02:32:41;6.95;;;4.63;;
48534;SDS011;34323;52.022;5.686;2022-10-23T02:35:11;7.43;;;4.82;;
48534;SDS011;34323;52.022;5.686;2022-10-23T02:37:36;6.80;;;4.20;;
48534;SDS011;34323;52.022;5.686;2022-10-23T02:40:03;14.60;;;4.88;;
48534;SDS011;34323;52.022;5.686;2022-10-23T02:42:38;17.02;;;4.90;;
48534;SDS011;34323;52.022;5.686;2022-10-23T02:45:18;21.90;;;4.57;;
48534;SDS011;34323;52.022;5.686;2022-10-23T02:48:07;11.73;;;4.63;;
48534;SDS011;34323;52.022;5.686;2022-10-23T02:50:40;6.78;;;4.18;;
48534;SDS011;34323;52.022;5.686;2022-10-23T02:53:15;11.00;;;4.80;;
48534;SDS011;34323;52.022;5.686;2022-10-23T02:55:48;8.85;;;4.55;;
48534;SDS011;34323;52.022;5.686;2022-10-23T03:01:08;14.20;;;4.95;;
48534;SDS011;34323;52.022;5.686;2022-10-23T03:03:41;10.07;;;4.40;;
48534;SDS011;34323;52.022;5.686;2022-10-23T03:06:13;7.63;;;4.07;;
48534;SDS011;34323;52.022;5.686;2022-10-23T03:08:42;10.43;;;4.80;;
48534;SDS011;34323;52.022;5.686;2022-10-23T03:11:17;12.55;;;4.20;;
48534;SDS011;34323;52.022;5.686;2022-10-23T03:13:42;8.45;;;4.50;;
48534;SDS011;34323;52.022;5.686;2022-10-23T03:16:08;10.20;;;4.30;;
48534;SDS011;34323;52.022;5.686;2022-10-23T03:18:34;10.00;;;4.40;;
48534;SDS011;34323;52.022;5.686;2022-10-23T03:20:59;11.57;;;5.00;;
48534;SDS011;34323;52.022;5.686;2022-10-23T03:23:25;12.88;;;4.60;;
48534;SDS011;34323;52.022;5.686;2022-10-23T03:25:51;13.90;;;4.78;;
48534;SDS011;34323;52.022;5.686;2022-10-23T03:28:18;10.43;;;5.00;;
48534;SDS011;34323;52.022;5.686;2022-10-23T03:30:44;15.90;;;5.10;;
48534;SDS011;34323;52.022;5.686;2022-10-23T03:33:09;12.35;;;5.00;;
48534;SDS011;34323;52.022;5.686;2022-10-23T03:35:35;12.68;;;4.70;;
48534;SDS011;34323;52.022;5.686;2022-10-23T03:38:00;7.80;;;4.55;;
48534;SDS011;34323;52.022;5.686;2022-10-23T03:40:26;10.20;;;5.25;;
48534;SDS011;34323;52.022;5.686;2022-10-23T03:42:52;16.33;;;4.97;;
48534;SDS011;34323;52.022;5.686;2022-10-23T03:45:17;6.57;;;4.35;;
48534;SDS011;34323;52.022;5.686;2022-10-23T03:47:43;11.00;;;4.90;;
48534;SDS011;34323;52.022;5.686;2022-10-23T03:50:09;8.07;;;5.32;;
48534;SDS011;34323;52.022;5.686;2022-10-23T03:52:36;9.43;;;4.55;;
48534;SDS011;34323;52.022;5.686;2022-10-23T03:55:02;11.20;;;4.75;;
48534;SDS011;34323;52.022;5.686;2022-10-23T03:57:28;15.10;;;4.95;;
48534;SDS011;34323;52.022;5.686;2022-10-23T03:59:53;9.70;;;4.57;;
48534;SDS011;34323;52.022;5.686;2022-10-23T04:02:19;15.63;;;5.00;;
48534;SDS011;34323;52.022;5.686;2022-10-23T04:04:44;12.20;;;5.15;;
48534;SDS011;34323;52.022;5.686;2022-10-23T04:07:10;8.88;;;4.30;;
48534;SDS011;34323;52.022;5.686;2022-10-23T04:09:35;11.32;;;4.78;;
48534;SDS011;34323;52.022;5.686;2022-10-23T04:12:01;13.80;;;4.50;;
48534;SDS011;34323;52.022;5.686;2022-10-23T04:14:27;7.68;;;5.10;;
48534;SDS011;34323;52.022;5.686;2022-10-23T04:16:52;8.93;;;4.43;;
48534;SDS011;34323;52.022;5.686;2022-10-23T04:19:18;9.07;;;4.63;;
48534;SDS011;34323;52.022;5.686;2022-10-23T04:21:43;9.35;;;4.68;;
48534;SDS011;34323;52.022;5.686;2022-10-23T04:24:09;13.40;;;5.50;;
48534;SDS011;34323;52.022;5.686;2022-10-23T04:26:35;13.43;;;6.25;;
48534;SDS011;34323;52.022;5.686;2022-10-23T04:29:00;7.90;;;5.30;;
48534;SDS011;34323;52.022;5.686;2022-10-23T04:31:26;14.63;;;5.50;;
48534;SDS011;34323;52.022;5.686;2022-10-23T04:33:52;6.75;;;4.20;;
48534;SDS011;34323;52.022;5.686;2022-10-23T04:36:17;12.10;;;5.22;;
48534;SDS011;34323;52.022;5.686;2022-10-23T04:38:43;9.73;;;5.13;;
48534;SDS011;34323;52.022;5.686;2022-10-23T04:41:08;8.90;;;4.93;;
48534;SDS011;34323;52.022;5.686;2022-10-23T04:43:34;11.32;;;5.40;;
48534;SDS011;34323;52.022;5.686;2022-10-23T04:46:00;12.82;;;5.35;;
48534;SDS011;34323;52.022;5.686;2022-10-23T04:48:25;12.38;;;4.65;;
48534;SDS011;34323;52.022;5.686;2022-10-23T04:50:58;9.73;;;5.50;;
48534;SDS011;34323;52.022;5.686;2022-10-23T04:53:25;9.10;;;5.07;;
48534;SDS011;34323;52.022;5.686;2022-10-23T04:55:52;8.77;;;4.93;;
48534;SDS011;34323;52.022;5.686;2022-10-23T04:58:18;13.75;;;4.75;;
48534;SDS011;34323;52.022;5.686;2022-10-23T05:00:45;11.90;;;4.80;;
48534;SDS011;34323;52.022;5.686;2022-10-23T05:03:11;11.32;;;4.95;;
48534;SDS011;34323;52.022;5.686;2022-10-23T05:05:37;15.15;;;5.00;;
48534;SDS011;34323;52.022;5.686;2022-10-23T05:08:03;6.80;;;4.20;;
48534;SDS011;34323;52.022;5.686;2022-10-23T05:10:28;12.85;;;4.97;;
48534;SDS011;34323;52.022;5.686;2022-10-23T05:12:54;8.95;;;4.45;;
48534;SDS011;34323;52.022;5.686;2022-10-23T05:15:20;10.55;;;4.55;;
48534;SDS011;34323;52.022;5.686;2022-10-23T05:17:45;16.40;;;5.25;;
48534;SDS011;34323;52.022;5.686;2022-10-23T05:20:14;7.50;;;4.50;;
48534;SDS011;34323;52.022;5.686;2022-10-23T05:22:43;9.57;;;4.90;;
48534;SDS011;34323;52.022;5.686;2022-10-23T05:25:12;11.85;;;4.90;;
48534;SDS011;34323;52.022;5.686;2022-10-23T05:27:38;10.90;;;4.88;;
48534;SDS011;34323;52.022;5.686;2022-10-23T05:30:04;6.80;;;4.20;;
48534;SDS011;34323;52.022;5.686;2022-10-23T05:32:30;9.07;;;4.53;;
48534;SDS011;34323;52.022;5.686;2022-10-23T05:34:57;13.05;;;5.90;;
48534;SDS011;34323;52.022;5.686;2022-10-23T05:37:26;11.05;;;4.65;;
48534;SDS011;34323;52.022;5.686;2022-10-23T05:39:52;9.40;;;4.90;;
48534;SDS011;34323;52.022;5.686;2022-10-23T05:42:18;7.47;;;4.50;;
48534;SDS011;34323;52.022;5.686;2022-10-23T05:44:44;8.02;;;3.80;;
48534;SDS011;34323;52.022;5.686;2022-10-23T05:47:09;11.07;;;4.20;;
48534;SDS011;34323;52.022;5.686;2022-10-23T05:49:35;7.50;;;3.95;;
48534;SDS011;34323;52.022;5.686;2022-10-23T05:52:00;13.77;;;5.72;;
48534;SDS011;34323;52.022;5.686;2022-10-23T05:54:26;13.70;;;5.07;;
48534;SDS011;34323;52.022;5.686;2022-10-23T05:56:52;11.85;;;5.03;;
48534;SDS011;34323;52.022;5.686;2022-10-23T05:59:17;8.10;;;4.65;;
48534;SDS011;34323;52.022;5.686;2022-10-23T06:01:43;11.23;;;5.70;;
48534;SDS011;34323;52.022;5.686;2022-10-23T06:04:08;18.45;;;5.35;;
48534;SDS011;34323;52.022;5.686;2022-10-23T06:06:34;8.25;;;5.35;;
48534;SDS011;34323;52.022;5.686;2022-10-23T06:09:00;17.08;;;5.25;;
48534;SDS011;34323;52.022;5.686;2022-10-23T06:11:26;15.32;;;5.53;;
48534;SDS011;34323;52.022;5.686;2022-10-23T06:13:52;7.78;;;4.65;;
48534;SDS011;34323;52.022;5.686;2022-10-23T06:16:18;17.38;;;4.95;;
48534;SDS011;34323;52.022;5.686;2022-10-23T06:18:45;12.15;;;5.40;;
48534;SDS011;34323;52.022;5.686;2022-10-23T06:21:12;11.65;;;4.68;;
48534;SDS011;34323;52.022;5.686;2022-10-23T06:23:39;11.40;;;5.07;;
48534;SDS011;34323;52.022;5.686;2022-10-23T06:26:05;14.05;;;5.10;;
48534;SDS011;34323;52.022;5.686;2022-10-23T06:28:32;11.90;;;4.60;;
48534;SDS011;34323;52.022;5.686;2022-10-23T06:30:58;13.05;;;5.88;;
48534;SDS011;34323;52.022;5.686;2022-10-23T06:33:24;10.00;;;4.05;;
48534;SDS011;34323;52.022;5.686;2022-10-23T06:35:49;10.70;;;4.38;;
48534;SDS011;34323;52.022;5.686;2022-10-23T06:38:15;14.98;;;4.68;;
48534;SDS011;34323;52.022;5.686;2022-10-23T06:40:40;11.20;;;5.07;;
48534;SDS011;34323;52.022;5.686;2022-10-23T06:43:06;9.77;;;5.70;;
48534;SDS011;34323;52.022;5.686;2022-10-23T06:45:32;19.08;;;5.38;;
48534;SDS011;34323;52.022;5.686;2022-10-23T06:47:59;16.95;;;5.47;;
48534;SDS011;34323;52.022;5.686;2022-10-23T06:50:25;8.65;;;4.70;;
48534;SDS011;34323;52.022;5.686;2022-10-23T06:52:51;9.98;;;4.80;;
48534;SDS011;34323;52.022;5.686;2022-10-23T06:55:18;8.85;;;4.00;;
48534;SDS011;34323;52.022;5.686;2022-10-23T06:57:43;7.32;;;4.75;;
48534;SDS011;34323;52.022;5.686;2022-10-23T07:00:09;6.30;;;4.18;;
48534;SDS011;34323;52.022;5.686;2022-10-23T07:02:35;7.85;;;4.53;;
48534;SDS011;34323;52.022;5.686;2022-10-23T07:05:01;9.95;;;4.32;;
48534;SDS011;34323;52.022;5.686;2022-10-23T07:07:30;10.30;;;4.55;;
48534;SDS011;34323;52.022;5.686;2022-10-23T07:09:56;9.48;;;4.03;;
48534;SDS011;34323;52.022;5.686;2022-10-23T07:12:22;11.65;;;4.85;;
48534;SDS011;34323;52.022;5.686;2022-10-23T07:14:47;7.20;;;4.28;;
48534;SDS011;34323;52.022;5.686;2022-10-23T07:17:13;9.75;;;5.15;;
48534;SDS011;34323;52.022;5.686;2022-10-23T07:19:39;9.18;;;3.83;;
48534;SDS011;34323;52.022;5.686;2022-10-23T07:22:04;8.70;;;4.20;;
48534;SDS011;34323;52.022;5.686;2022-10-23T07:24:30;7.25;;;4.68;;
48534;SDS011;34323;52.022;5.686;2022-10-23T07:27:00;9.10;;;4.25;;
48534;SDS011;34323;52.022;5.686;2022-10-23T07:29:27;8.05;;;4.78;;
48534;SDS011;34323;52.022;5.686;2022-10-23T07:31:52;10.82;;;4.18;;
48534;SDS011;34323;52.022;5.686;2022-10-23T07:34:18;9.38;;;4.50;;
48534;SDS011;34323;52.022;5.686;2022-10-23T07:36:43;9.27;;;4.30;;
48534;SDS011;34323;52.022;5.686;2022-10-23T07:39:09;13.98;;;4.47;;
48534;SDS011;34323;52.022;5.686;2022-10-23T07:41:35;10.85;;;4.13;;
48534;SDS011;34323;52.022;5.686;2022-10-23T07:44:01;11.18;;;4.45;;
48534;SDS011;34323;52.022;5.686;2022-10-23T07:46:26;15.55;;;4.75;;
48534;SDS011;34323;52.022;5.686;2022-10-23T07:48:52;11.52;;;4.38;;
48534;SDS011;34323;52.022;5.686;2022-10-23T07:51:18;12.73;;;3.67;;
48534;SDS011;34323;52.022;5.686;2022-10-23T07:53:43;8.23;;;4.40;;
48534;SDS011;34323;52.022;5.686;2022-10-23T07:56:20;11.80;;;4.93;;
48534;SDS011;34323;52.022;5.686;2022-10-23T07:58:54;7.70;;;4.03;;
48534;SDS011;34323;52.022;5.686;2022-10-23T08:01:30;14.68;;;4.85;;
48534;SDS011;34323;52.022;5.686;2022-10-23T08:04:00;14.18;;;3.85;;
48534;SDS011;34323;52.022;5.686;2022-10-23T08:06:26;7.45;;;3.95;;
48534;SDS011;34323;52.022;5.686;2022-10-23T08:08:52;8.23;;;3.42;;
48534;SDS011;34323;52.022;5.686;2022-10-23T08:11:19;14.27;;;4.65;;
48534;SDS011;34323;52.022;5.686;2022-10-23T08:13:50;16.65;;;4.70;;
48534;SDS011;34323;52.022;5.686;2022-10-23T08:16:17;8.35;;;3.72;;
48534;SDS011;34323;52.022;5.686;2022-10-23T08:18:42;8.10;;;3.55;;
48534;SDS011;34323;52.022;5.686;2022-10-23T08:21:09;9.60;;;3.80;;
48534;SDS011;34323;52.022;5.686;2022-10-23T08:23:35;10.35;;;3.42;;
48534;SDS011;34323;52.022;5.686;2022-10-23T08:26:02;9.20;;;3.20;;
48534;SDS011;34323;52.022;5.686;2022-10-23T08:28:29;8.95;;;3.30;;
48534;SDS011;34323;52.022;5.686;2022-10-23T08:30:55;7.05;;;3.17;;
48534;SDS011;34323;52.022;5.686;2022-10-23T08:33:21;9.25;;;3.75;;
48534;SDS011;34323;52.022;5.686;2022-10-23T08:35:48;8.95;;;3.50;;
48534;SDS011;34323;52.022;5.686;2022-10-23T08:38:14;8.02;;;4.18;;
48534;SDS011;34323;52.022;5.686;2022-10-23T08:40:43;8.30;;;3.83;;
48534;SDS011;34323;52.022;5.686;2022-10-23T08:45:42;11.80;;;3.63;;
48534;SDS011;34323;52.022;5.686;2022-10-23T08:50:55;7.65;;;3.25;;
48534;SDS011;34323;52.022;5.686;2022-10-23T08:53:40;7.88;;;3.30;;
48534;SDS011;34323;52.022;5.686;2022-10-23T08:56:33;13.07;;;2.85;;
48534;SDS011;34323;52.022;5.686;2022-10-23T08:59:18;6.63;;;3.20;;
48534;SDS011;34323;52.022;5.686;2022-10-23T09:01:51;5.88;;;3.13;;
48534;SDS011;34323;52.022;5.686;2022-10-23T09:04:33;10.48;;;3.95;;
48534;SDS011;34323;52.022;5.686;2022-10-23T09:12:36;8.65;;;2.92;;
48534;SDS011;34323;52.022;5.686;2022-10-23T09:17:53;6.22;;;3.17;;
48534;SDS011;34323;52.022;5.686;2022-10-23T09:20:29;5.43;;;2.90;;
48534;SDS011;34323;52.022;5.686;2022-10-23T09:22:59;8.25;;;3.05;;
48534;SDS011;34323;52.022;5.686;2022-10-23T09:25:28;7.15;;;3.08;;
48534;SDS011;34323;52.022;5.686;2022-10-23T09:27:58;6.70;;;2.85;;
48534;SDS011;34323;52.022;5.686;2022-10-23T09:32:56;4.72;;;2.85;;
48534;SDS011;34323;52.022;5.686;2022-10-23T09:35:23;8.00;;;2.97;;
48534;SDS011;34323;52.022;5.686;2022-10-23T09:37:51;3.25;;;2.30;;
48534;SDS011;34323;52.022;5.686;2022-10-23T09:40:30;7.95;;;2.75;;
48534;SDS011;34323;52.022;5.686;2022-10-23T09:43:03;12.52;;;2.45;;
48534;SDS011;34323;52.022;5.686;2022-10-23T09:45:41;4.88;;;2.30;;
48534;SDS011;34323;52.022;5.686;2022-10-23T09:48:14;6.38;;;2.75;;
48534;SDS011;34323;52.022;5.686;2022-10-23T09:50:44;6.45;;;2.85;;
48534;SDS011;34323;52.022;5.686;2022-10-23T09:53:14;7.97;;;3.63;;
48534;SDS011;34323;52.022;5.686;2022-10-23T09:55:49;11.25;;;2.60;;
48534;SDS011;34323;52.022;5.686;2022-10-23T09:58:20;9.10;;;3.28;;
48534;SDS011;34323;52.022;5.686;2022-10-23T10:00:59;9.65;;;3.28;;
48534;SDS011;34323;52.022;5.686;2022-10-23T10:03:25;4.70;;;2.85;;
48534;SDS011;34323;52.022;5.686;2022-10-23T10:06:01;4.18;;;2.25;;
48534;SDS011;34323;52.022;5.686;2022-10-23T10:11:09;5.40;;;2.80;;
48534;SDS011;34323;52.022;5.686;2022-10-23T10:16:29;8.40;;;2.70;;
48534;SDS011;34323;52.022;5.686;2022-10-23T10:19:10;7.15;;;2.42;;
48534;SDS011;34323;52.022;5.686;2022-10-23T10:22:02;6.70;;;2.45;;
48534;SDS011;34323;52.022;5.686;2022-10-23T10:24:51;4.75;;;2.35;;
48534;SDS011;34323;52.022;5.686;2022-10-23T10:27:44;4.65;;;2.20;;
48534;SDS011;34323;52.022;5.686;2022-10-23T10:30:24;7.40;;;2.95;;
48534;SDS011;34323;52.022;5.686;2022-10-23T10:33:34;9.85;;;2.13;;
48534;SDS011;34323;52.022;5.686;2022-10-23T10:39:09;5.95;;;2.65;;
48534;SDS011;34323;52.022;5.686;2022-10-23T10:41:57;8.75;;;2.85;;
48534;SDS011;34323;52.022;5.686;2022-10-23T10:47:42;4.93;;;2.03;;
48534;SDS011;34323;52.022;5.686;2022-10-23T10:56:11;10.63;;;2.58;;
48534;SDS011;34323;52.022;5.686;2022-10-23T10:58:46;3.90;;;2.22;;
48534;SDS011;34323;52.022;5.686;2022-10-23T11:01:21;6.50;;;2.00;;
48534;SDS011;34323;52.022;5.686;2022-10-23T11:04:31;5.93;;;1.92;;
48534;SDS011;34323;52.022;5.686;2022-10-23T11:07:07;3.47;;;2.08;;
48534;SDS011;34323;52.022;5.686;2022-10-23T11:09:37;5.97;;;2.20;;
48534;SDS011;34323;52.022;5.686;2022-10-23T11:12:03;6.25;;;2.30;;
48534;SDS011;34323;52.022;5.686;2022-10-23T11:14:30;6.45;;;2.38;;
48534;SDS011;34323;52.022;5.686;2022-10-23T11:17:11;6.20;;;2.75;;
48534;SDS011;34323;52.022;5.686;2022-10-23T11:19:44;6.85;;;2.10;;
48534;SDS011;34323;52.022;5.686;2022-10-23T11:22:21;7.07;;;2.00;;
48534;SDS011;34323;52.022;5.686;2022-10-23T11:27:54;5.38;;;2.20;;
48534;SDS011;34323;52.022;5.686;2022-10-23T11:33:02;3.03;;;1.90;;
48534;SDS011;34323;52.022;5.686;2022-10-23T11:36:05;6.32;;;2.60;;
48534;SDS011;34323;52.022;5.686;2022-10-23T11:38:32;4.57;;;2.10;;
48534;SDS011;34323;52.022;5.686;2022-10-23T11:41:24;5.60;;;1.77;;
48534;SDS011;34323;52.022;5.686;2022-10-23T11:43:54;5.57;;;2.30;;
48534;SDS011;34323;52.022;5.686;2022-10-23T11:46:37;9.32;;;3.10;;
48534;SDS011;34323;52.022;5.686;2022-10-23T11:49:03;5.72;;;2.50;;
48534;SDS011;34323;52.022;5.686;2022-10-23T11:51:42;4.22;;;2.10;;
48534;SDS011;34323;52.022;5.686;2022-10-23T11:59:49;8.70;;;1.98;;
48534;SDS011;34323;52.022;5.686;2022-10-23T12:04:51;7.57;;;2.10;;
48534;SDS011;34323;52.022;5.686;2022-10-23T12:07:28;4.07;;;2.08;;
48534;SDS011;34323;52.022;5.686;2022-10-23T12:10:19;4.47;;;2.00;;
48534;SDS011;34323;52.022;5.686;2022-10-23T12:12:59;5.50;;;2.30;;
48534;SDS011;34323;52.022;5.686;2022-10-23T12:15:30;7.45;;;2.50;;
48534;SDS011;34323;52.022;5.686;2022-10-23T12:18:13;8.30;;;2.17;;
48534;SDS011;34323;52.022;5.686;2022-10-23T12:20:50;7.05;;;2.20;;
48534;SDS011;34323;52.022;5.686;2022-10-23T12:29:21;6.97;;;2.75;;
48534;SDS011;34323;52.022;5.686;2022-10-23T12:40:20;3.63;;;1.80;;
48534;SDS011;34323;52.022;5.686;2022-10-23T12:42:54;2.78;;;1.77;;
48534;SDS011;34323;52.022;5.686;2022-10-23T12:45:22;3.15;;;1.63;;
48534;SDS011;34323;52.022;5.686;2022-10-23T12:47:50;3.10;;;1.50;;
48534;SDS011;34323;52.022;5.686;2022-10-23T12:50:21;3.10;;;1.45;;
48534;SDS011;34323;52.022;5.686;2022-10-23T12:52:50;3.22;;;1.80;;
48534;SDS011;34323;52.022;5.686;2022-10-23T12:55:17;5.20;;;1.75;;
48534;SDS011;34323;52.022;5.686;2022-10-23T12:57:43;6.28;;;1.75;;
48534;SDS011;34323;52.022;5.686;2022-10-23T13:00:14;6.65;;;2.00;;
48534;SDS011;34323;52.022;5.686;2022-10-23T13:02:45;5.18;;;1.88;;
48534;SDS011;34323;52.022;5.686;2022-10-23T13:05:21;12.25;;;1.92;;
48534;SDS011;34323;52.022;5.686;2022-10-23T13:07:47;2.72;;;1.85;;
48534;SDS011;34323;52.022;5.686;2022-10-23T13:10:15;2.67;;;1.88;;
48534;SDS011;34323;52.022;5.686;2022-10-23T13:12:43;6.00;;;1.52;;
48534;SDS011;34323;52.022;5.686;2022-10-23T13:15:19;3.33;;;1.75;;
48534;SDS011;34323;52.022;5.686;2022-10-23T13:17:47;2.83;;;1.38;;
48534;SDS011;34323;52.022;5.686;2022-10-23T13:20:26;4.30;;;1.67;;
48534;SDS011;34323;52.022;5.686;2022-10-23T13:25:40;2.70;;;1.85;;
48534;SDS011;34323;52.022;5.686;2022-10-23T13:30:37;2.85;;;1.40;;
48534;SDS011;34323;52.022;5.686;2022-10-23T13:35:39;2.35;;;1.48;;
48534;SDS011;34323;52.022;5.686;2022-10-23T13:38:08;3.78;;;1.60;;
48534;SDS011;34323;52.022;5.686;2022-10-23T13:40:34;4.72;;;1.42;;
48534;SDS011;34323;52.022;5.686;2022-10-23T13:43:00;4.20;;;1.60;;
48534;SDS011;34323;52.022;5.686;2022-10-23T13:45:26;4.80;;;1.83;;
48534;SDS011;34323;52.022;5.686;2022-10-23T13:47:51;6.38;;;1.70;;
48534;SDS011;34323;52.022;5.686;2022-10-23T13:50:17;6.43;;;1.63;;
48534;SDS011;34323;52.022;5.686;2022-10-23T13:52:44;3.25;;;1.80;;
48534;SDS011;34323;52.022;5.686;2022-10-23T13:55:14;5.05;;;1.60;;
48534;SDS011;34323;52.022;5.686;2022-10-23T13:57:45;4.70;;;2.20;;
48534;SDS011;34323;52.022;5.686;2022-10-23T14:00:11;5.45;;;1.75;;
48534;SDS011;34323;52.022;5.686;2022-10-23T14:02:37;2.95;;;1.40;;
48534;SDS011;34323;52.022;5.686;2022-10-23T14:05:02;6.78;;;1.73;;
48534;SDS011;34323;52.022;5.686;2022-10-23T14:07:28;7.40;;;1.58;;
48534;SDS011;34323;52.022;5.686;2022-10-23T14:09:53;3.25;;;1.77;;
48534;SDS011;34323;52.022;5.686;2022-10-23T14:12:19;2.53;;;1.65;;
48534;SDS011;34323;52.022;5.686;2022-10-23T14:14:48;5.05;;;1.95;;
48534;SDS011;34323;52.022;5.686;2022-10-23T14:17:15;2.00;;;1.25;;
48534;SDS011;34323;52.022;5.686;2022-10-23T14:19:40;3.00;;;1.40;;
48534;SDS011;34323;52.022;5.686;2022-10-23T14:22:06;7.30;;;1.70;;
48534;SDS011;34323;52.022;5.686;2022-10-23T14:24:31;3.15;;;1.63;;
48534;SDS011;34323;52.022;5.686;2022-10-23T14:26:57;5.28;;;1.60;;
48534;SDS011;34323;52.022;5.686;2022-10-23T14:29:23;2.95;;;1.67;;
48534;SDS011;34323;52.022;5.686;2022-10-23T14:31:49;7.75;;;1.70;;
48534;SDS011;34323;52.022;5.686;2022-10-23T14:34:14;3.03;;;1.60;;
48534;SDS011;34323;52.022;5.686;2022-10-23T14:36:40;3.65;;;1.50;;
48534;SDS011;34323;52.022;5.686;2022-10-23T14:39:06;4.18;;;1.42;;
48534;SDS011;34323;52.022;5.686;2022-10-23T14:41:31;2.10;;;1.40;;
48534;SDS011;34323;52.022;5.686;2022-10-23T14:43:57;3.13;;;1.42;;
48534;SDS011;34323;52.022;5.686;2022-10-23T14:46:23;6.05;;;1.48;;
48534;SDS011;34323;52.022;5.686;2022-10-23T14:48:49;4.10;;;1.83;;
48534;SDS011;34323;52.022;5.686;2022-10-23T14:53:43;6.30;;;2.05;;
48534;SDS011;34323;52.022;5.686;2022-10-23T14:56:08;3.10;;;1.98;;
48534;SDS011;34323;52.022;5.686;2022-10-23T14:58:34;4.07;;;1.60;;
48534;SDS011;34323;52.022;5.686;2022-10-23T15:01:00;2.20;;;1.23;;
48534;SDS011;34323;52.022;5.686;2022-10-23T15:03:26;1.63;;;1.30;;
48534;SDS011;34323;52.022;5.686;2022-10-23T15:05:52;4.50;;;1.50;;
48534;SDS011;34323;52.022;5.686;2022-10-23T15:08:19;6.95;;;1.80;;
48534;SDS011;34323;52.022;5.686;2022-10-23T15:10:46;3.65;;;1.60;;
48534;SDS011;34323;52.022;5.686;2022-10-23T15:13:11;5.22;;;1.80;;
48534;SDS011;34323;52.022;5.686;2022-10-23T15:15:37;4.50;;;1.40;;
48534;SDS011;34323;52.022;5.686;2022-10-23T15:18:03;4.32;;;1.80;;
48534;SDS011;34323;52.022;5.686;2022-10-23T15:20:28;7.47;;;2.03;;
48534;SDS011;34323;52.022;5.686;2022-10-23T15:22:56;2.58;;;1.38;;
48534;SDS011;34323;52.022;5.686;2022-10-23T15:25:22;4.82;;;1.75;;
48534;SDS011;34323;52.022;5.686;2022-10-23T15:27:48;11.30;;;2.75;;
48534;SDS011;34323;52.022;5.686;2022-10-23T15:30:13;5.30;;;1.92;;
48534;SDS011;34323;52.022;5.686;2022-10-23T15:32:49;6.22;;;1.85;;
48534;SDS011;34323;52.022;5.686;2022-10-23T15:35:14;4.65;;;2.05;;
48534;SDS011;34323;52.022;5.686;2022-10-23T15:37:40;10.75;;;2.40;;
48534;SDS011;34323;52.022;5.686;2022-10-23T15:40:05;4.60;;;1.77;;
48534;SDS011;34323;52.022;5.686;2022-10-23T15:42:32;3.97;;;1.67;;
48534;SDS011;34323;52.022;5.686;2022-10-23T15:44:57;7.15;;;1.95;;
48534;SDS011;34323;52.022;5.686;2022-10-23T15:47:23;3.85;;;2.13;;
48534;SDS011;34323;52.022;5.686;2022-10-23T15:49:48;4.10;;;2.10;;
48534;SDS011;34323;52.022;5.686;2022-10-23T15:52:14;3.20;;;1.75;;
48534;SDS011;34323;52.022;5.686;2022-10-23T15:54:39;4.72;;;2.00;;
48534;SDS011;34323;52.022;5.686;2022-10-23T15:57:05;13.10;;;2.85;;
48534;SDS011;34323;52.022;5.686;2022-10-23T15:59:30;3.60;;;2.30;;
48534;SDS011;34323;52.022;5.686;2022-10-23T16:01:56;18.25;;;2.33;;
48534;SDS011;34323;52.022;5.686;2022-10-23T16:04:22;4.82;;;1.90;;
48534;SDS011;34323;52.022;5.686;2022-10-23T16:06:48;4.18;;;1.75;;
48534;SDS011;34323;52.022;5.686;2022-10-23T16:09:14;4.47;;;2.08;;
48534;SDS011;34323;52.022;5.686;2022-10-23T16:11:40;7.90;;;2.40;;
48534;SDS011;34323;52.022;5.686;2022-10-23T16:14:08;5.32;;;1.88;;
48534;SDS011;34323;52.022;5.686;2022-10-23T16:16:37;6.43;;;2.13;;
48534;SDS011;34323;52.022;5.686;2022-10-23T16:19:03;4.00;;;2.03;;
48534;SDS011;34323;52.022;5.686;2022-10-23T16:21:30;5.43;;;1.92;;
48534;SDS011;34323;52.022;5.686;2022-10-23T16:23:59;3.15;;;1.85;;
48534;SDS011;34323;52.022;5.686;2022-10-23T16:26:26;3.17;;;1.88;;
48534;SDS011;34323;52.022;5.686;2022-10-23T16:28:57;8.95;;;2.30;;
48534;SDS011;34323;52.022;5.686;2022-10-23T16:31:24;5.65;;;2.90;;